createdAt,value
2018-09-29T00:36:16.290Z,6.59
2018-09-29T00:37:01.395Z,6.39
2018-09-29T00:38:01.327Z,6.48
2018-09-29T00:39:01.287Z,6.49
2018-09-29T00:40:01.124Z,6.46
2018-09-29T00:41:01.357Z,6.42
2018-09-29T00:42:01.333Z,6.49
2018-09-29T00:43:01.250Z,6.49
2018-09-29T00:45:01.250Z,6.48
2018-09-29T00:46:01.167Z,6.52
2018-09-29T00:47:02.045Z,6.51
2018-09-29T00:48:01.107Z,6.57
2018-09-29T00:49:01.773Z,6.52
2018-09-29T00:50:01.080Z,6.57
2018-09-29T00:51:01.003Z,6.54
2018-09-29T00:53:01.092Z,6.52
2018-09-29T00:54:01.069Z,6.51
2018-09-29T00:55:01.020Z,6.51
2018-09-29T00:56:01.097Z,6.60
2018-09-29T00:57:01.037Z,6.56
2018-09-29T00:58:01.102Z,6.51
2018-09-29T00:59:00.887Z,6.45
2018-09-29T01:00:00.896Z,6.44
2018-09-29T01:01:01.434Z,6.48
2018-09-29T01:02:00.948Z,6.51
2018-09-29T01:03:01.460Z,6.45
2018-09-29T01:04:00.919Z,6.45
2018-09-29T01:06:00.746Z,6.44
2018-09-29T01:07:00.655Z,6.46
2018-09-29T01:08:00.840Z,6.51
2018-09-29T01:09:03.497Z,6.46
2018-09-29T01:10:00.727Z,6.48
2018-09-29T01:12:00.679Z,6.45
2018-09-29T01:13:00.765Z,6.49
2018-09-29T01:14:00.628Z,6.49
2018-09-29T01:15:01.130Z,6.51
2018-09-29T01:16:00.764Z,6.45
2018-09-29T01:18:00.640Z,6.44
2018-09-29T01:19:00.626Z,6.39
2018-09-29T01:20:02.227Z,6.36
2018-09-29T01:21:00.593Z,6.36
2018-09-29T01:23:00.514Z,6.38
2018-09-29T01:25:00.448Z,6.35
2018-09-29T01:27:03.464Z,6.28
2018-09-29T01:28:00.482Z,6.28
2018-09-29T01:29:00.390Z,6.24
2018-09-29T01:30:00.304Z,6.26
2018-09-29T01:31:00.238Z,6.27
2018-09-29T01:32:00.426Z,6.24
2018-09-29T01:33:00.473Z,6.27
2018-09-29T01:34:01.479Z,6.28
2018-09-29T01:35:00.975Z,6.31
2018-09-29T01:36:00.280Z,6.19
2018-09-29T01:37:00.421Z,6.20
2018-09-29T01:39:00.395Z,6.36
2018-09-29T01:40:00.278Z,6.19
2018-09-29T01:41:00.368Z,6.26
2018-09-29T01:42:00.184Z,6.30
2018-09-29T01:43:00.261Z,6.22
2018-09-29T01:44:00.215Z,6.33
2018-09-29T01:45:00.291Z,6.24
2018-09-29T01:46:00.172Z,6.26
2018-09-29T01:47:00.074Z,6.30
2018-09-29T01:52:06.936Z,6.07
2018-09-29T01:53:06.968Z,5.99
2018-09-29T02:10:36.292Z,5.43
2018-09-29T02:12:37.836Z,5.32
2018-09-29T02:13:36.161Z,5.39
2018-09-29T02:14:36.741Z,5.47
2018-09-29T02:15:36.229Z,5.35
2018-09-29T02:17:36.177Z,5.41
2018-09-29T02:19:36.173Z,5.43
2018-09-29T02:20:36.088Z,5.47
2018-09-29T02:21:36.005Z,5.46
2018-09-29T02:23:35.994Z,5.48
2018-09-29T02:24:36.012Z,5.50
2018-09-29T02:25:35.966Z,5.51
2018-09-29T02:26:36.007Z,5.48
2018-09-29T02:29:36.691Z,5.56
2018-09-29T02:30:35.960Z,5.59
2018-09-29T02:31:36.781Z,5.62
2018-09-29T02:32:35.928Z,5.62
2018-09-29T02:33:35.917Z,5.71
2018-09-29T02:34:37.662Z,5.80
2018-09-29T02:35:35.805Z,5.84
2018-09-29T02:36:36.313Z,5.82
2018-09-29T02:38:37.755Z,5.82
2018-09-29T02:39:35.721Z,5.82
2018-09-29T02:40:35.817Z,5.87
2018-09-29T02:41:36.315Z,5.83
2018-09-29T02:42:40.275Z,5.90
2018-09-29T02:43:42.272Z,5.89
2018-09-29T02:45:36.154Z,5.93
2018-09-29T02:46:36.157Z,5.86
2018-09-29T02:47:35.611Z,5.86
2018-09-29T02:48:35.660Z,5.84
2018-09-29T02:49:35.657Z,5.82
2018-09-29T02:50:35.611Z,5.94
2018-09-29T02:51:35.581Z,5.91
2018-09-29T02:52:35.517Z,5.93
2018-09-29T02:53:56.579Z,5.87
2018-09-29T02:54:35.500Z,5.91
2018-09-29T02:56:36.274Z,5.89
2018-09-29T03:03:00.733Z,5.65
2018-09-29T03:03:52.427Z,5.62
2018-09-29T03:04:53.293Z,5.54
2018-09-29T03:05:54.286Z,5.51
2018-09-29T03:07:52.364Z,5.48
2018-09-29T03:09:53.725Z,5.47
2018-09-29T03:10:52.315Z,5.44
2018-09-29T03:11:53.318Z,5.48
2018-09-29T03:12:52.307Z,5.44
2018-09-29T03:13:53.789Z,5.46
2018-09-29T03:14:52.836Z,5.50
2018-09-29T03:15:52.157Z,5.46
2018-09-29T03:16:52.205Z,5.50
2018-09-29T03:17:52.798Z,5.47
2018-09-29T03:18:52.131Z,5.44
2018-09-29T03:19:53.678Z,5.47
2018-09-29T03:20:52.518Z,5.36
2018-09-29T03:21:52.100Z,5.36
2018-09-29T03:22:52.106Z,5.43
2018-09-29T03:23:52.050Z,5.36
2018-09-29T03:24:58.757Z,5.46
2018-09-29T03:25:51.998Z,5.36
2018-09-29T03:26:53.765Z,5.46
2018-09-29T03:27:52.051Z,5.36
2018-09-29T03:28:52.006Z,5.54
2018-09-29T03:29:51.916Z,5.43
2018-09-29T03:30:52.427Z,5.43
2018-09-29T03:31:51.903Z,5.39
2018-09-29T03:32:52.873Z,5.46
2018-09-29T03:33:52.490Z,5.50
2018-09-29T03:34:51.862Z,5.41
2018-09-29T03:35:52.875Z,5.44
2018-09-29T03:36:51.869Z,5.36
2018-09-29T03:37:51.738Z,5.53
2018-09-29T03:49:02.673Z,5.12
2018-09-29T03:50:01.089Z,5.07
2018-09-29T03:51:00.614Z,5.00
2018-09-29T03:53:00.552Z,5.02
2018-09-29T03:56:03.174Z,5.10
2018-09-29T03:57:00.443Z,5.15
2018-09-29T03:58:00.332Z,5.18
2018-09-29T03:59:00.400Z,5.12
2018-09-29T04:00:00.996Z,5.12
2018-09-29T04:01:01.151Z,5.14
2018-09-29T04:02:01.129Z,5.20
2018-09-29T04:04:05.032Z,5.20
2018-09-29T04:05:00.256Z,5.20
2018-09-29T04:06:00.223Z,5.18
2018-09-29T04:09:00.800Z,5.43
2018-09-29T04:10:00.187Z,5.38
2018-09-29T04:11:36.763Z,5.54
2018-09-29T04:12:00.185Z,5.61
2018-09-29T04:13:00.138Z,5.68
2018-09-29T04:14:02.706Z,5.82
2018-09-29T04:15:00.178Z,5.84
2018-09-29T04:16:00.140Z,5.98
2018-09-29T04:16:59.989Z,5.97
2018-09-29T04:19:01.677Z,5.94
2018-09-29T04:21:01.543Z,6.05
2018-09-29T04:22:01.668Z,6.07
2018-09-29T04:24:01.613Z,6.24
2018-09-29T04:25:02.685Z,6.17
2018-09-29T04:27:00.690Z,6.12
2018-09-29T04:27:59.968Z,6.11
2018-09-29T04:28:59.949Z,6.01
2018-09-29T04:29:59.919Z,6.07
2018-09-29T04:30:59.921Z,5.99
2018-09-29T04:31:59.899Z,6.01
2018-09-29T04:33:02.215Z,6.02
2018-09-29T04:33:59.763Z,5.86
2018-09-29T04:35:59.818Z,5.90
2018-09-29T04:36:59.835Z,5.83
2018-09-29T04:37:59.682Z,5.84
2018-09-29T04:39:01.692Z,5.84
2018-09-29T04:40:01.685Z,5.91
2018-09-29T04:40:59.747Z,5.91
2018-09-29T04:42:05.217Z,5.86
2018-09-29T04:43:00.719Z,5.93
2018-09-29T04:44:00.137Z,5.93
2018-09-29T04:44:59.573Z,5.84
2018-09-29T04:46:00.718Z,5.94
2018-09-29T04:46:59.543Z,5.90
2018-09-29T04:47:59.583Z,5.94
2018-09-29T04:49:59.591Z,6.01
2018-09-29T04:51:02.160Z,5.97
2018-09-29T04:51:59.497Z,6.01
2018-09-29T04:53:02.187Z,6.05
2018-09-29T04:54:00.086Z,6.22
2018-09-29T04:55:02.193Z,6.27
2018-09-29T04:55:59.398Z,6.26
2018-09-29T04:57:20.478Z,6.36
2018-09-29T04:58:59.416Z,6.36
2018-09-29T04:59:59.281Z,6.36
2018-09-29T05:04:59.277Z,6.49
2018-09-29T05:05:59.802Z,6.49
2018-09-29T05:07:59.299Z,6.57
2018-09-29T05:09:59.096Z,6.66
2018-09-29T05:11:01.632Z,6.64
2018-09-29T05:12:04.174Z,6.78
2018-09-29T05:13:01.585Z,6.72
2018-09-29T05:13:59.190Z,6.63
2018-09-29T05:15:21.706Z,6.72
2018-09-29T05:16:59.132Z,6.77
2018-09-29T05:17:59.683Z,6.70
2018-09-29T05:19:09.701Z,6.81
2018-09-29T05:20:01.703Z,6.92
2018-09-29T05:21:59.042Z,6.89
2018-09-29T05:22:59.708Z,6.88
2018-09-29T05:24:03.541Z,7.17
2018-09-29T05:24:59.536Z,7.28
2018-09-29T05:25:59.655Z,7.25
2018-09-29T05:27:00.657Z,7.36
2018-09-29T05:27:58.979Z,7.47
2018-09-29T06:26:55.283Z,13.37
2018-09-29T06:27:45.755Z,13.57
2018-09-29T06:29:02.364Z,13.77
2018-09-29T06:29:41.291Z,13.86
2018-09-29T06:42:48.548Z,16.78
2018-09-29T06:49:34.341Z,18.40
2018-09-29T06:59:19.077Z,20.80
2018-09-29T06:59:54.048Z,21.00
2018-09-29T07:03:59.233Z,22.50
2018-09-29T07:04:51.985Z,22.73
2018-09-29T07:05:53.710Z,23.18
2018-09-29T07:06:51.971Z,23.61
2018-09-29T07:07:51.976Z,24.02
2018-09-29T07:08:53.784Z,24.42
2018-09-29T07:09:51.914Z,24.77
2018-09-29T07:10:52.010Z,25.16
2018-09-29T07:11:51.882Z,25.46
2018-09-29T07:13:06.786Z,25.73
2018-09-29T07:13:56.798Z,25.99
2018-09-29T07:14:51.956Z,26.25
2018-09-29T07:15:51.942Z,26.66
2018-09-29T07:16:53.710Z,26.99
2018-09-29T07:17:56.723Z,27.33
2018-09-29T07:18:56.807Z,27.54
2018-09-29T07:20:52.806Z,28.27
2018-09-29T07:22:51.930Z,28.70
2018-09-29T07:24:17.812Z,29.12
2018-09-29T07:25:06.857Z,29.27
2018-09-29T07:26:07.868Z,29.60
2018-09-29T07:26:52.772Z,29.82
2018-09-29T07:27:53.834Z,30.19
2018-09-29T07:28:51.943Z,30.28
2018-09-29T07:29:51.920Z,30.44
2018-09-29T07:32:36.558Z,31.10
2018-09-29T07:33:48.172Z,31.36
2018-09-29T07:34:47.610Z,31.70
2018-09-29T07:35:31.973Z,32.09
2018-09-29T07:36:32.004Z,32.43
2018-09-29T07:37:46.559Z,32.80
2018-09-29T07:47:19.885Z,35.49
2018-09-29T07:48:16.472Z,36.17
2018-09-29T07:53:48.114Z,38.08
2018-09-29T07:54:32.545Z,38.28
2018-09-29T08:02:21.119Z,39.18
2018-09-29T08:05:47.205Z,39.85
2018-09-29T08:07:45.645Z,40.24
2018-09-29T08:08:45.591Z,40.47
2018-09-29T08:09:48.631Z,40.58
2018-09-29T08:11:45.665Z,40.59
2018-09-29T08:12:45.673Z,40.91
2018-09-29T08:13:45.664Z,41.40
2018-09-29T08:14:45.639Z,41.53
2018-09-29T08:16:45.697Z,41.18
2018-09-29T08:17:45.698Z,41.55
2018-09-29T08:19:45.602Z,42.20
2018-09-29T08:21:45.701Z,42.41
2018-09-29T08:22:48.202Z,42.48
2018-09-29T08:25:45.725Z,43.28
2018-09-29T08:29:45.744Z,43.89
2018-09-29T08:30:45.718Z,43.84
2018-09-29T08:31:45.755Z,43.83
2018-09-29T08:32:45.722Z,43.33
2018-09-29T08:33:45.730Z,43.35
2018-09-29T08:36:45.772Z,43.26
2018-09-29T08:37:45.752Z,43.31
2018-09-29T08:38:45.801Z,43.42
2018-09-29T08:46:23.351Z,44.91
2018-09-29T08:47:12.815Z,44.88
2018-09-29T08:49:09.230Z,44.68
2018-09-29T08:53:21.507Z,44.74
2018-09-29T08:54:13.408Z,44.42
2018-09-29T08:58:11.039Z,44.34
2018-09-29T08:59:44.958Z,43.84
2018-09-29T09:00:42.363Z,42.65
2018-09-29T09:02:53.245Z,41.36
2018-09-29T09:10:42.061Z,44.06
2018-09-29T09:29:14.745Z,33.00
2018-09-29T09:34:28.127Z,28.89
2018-09-29T09:35:16.029Z,28.47
2018-09-29T12:02:35.708Z,32.59
2018-09-29T12:05:00.603Z,32.73
2018-09-29T12:14:15.205Z,40.96
2018-09-29T12:19:32.337Z,42.20
2018-09-29T12:20:31.221Z,42.25
2018-09-29T12:23:25.949Z,37.77
2018-09-29T12:50:20.213Z,41.55
2018-09-29T13:07:02.010Z,36.65
2018-09-29T13:27:47.965Z,32.18
2018-09-29T13:29:42.846Z,30.46
2018-09-29T13:30:42.170Z,29.75
2018-09-29T13:31:43.843Z,29.59
2018-09-29T13:32:41.179Z,29.36
2018-09-29T13:33:42.223Z,29.13
2018-09-29T13:34:47.730Z,28.84
2018-09-29T13:35:41.160Z,28.72
2018-09-29T13:37:02.149Z,28.60
2018-09-29T13:37:56.683Z,28.74
2018-09-29T13:38:43.684Z,28.44
2018-09-29T14:27:36.564Z,32.11
2018-09-29T14:31:42.895Z,30.77
